createdAt,value
2022-11-09T00:02:06.205Z,7.61
2022-11-09T00:12:09.985Z,7.68
2022-11-09T00:22:13.868Z,7.64
2022-11-09T00:32:17.824Z,7.49
2022-11-09T00:42:21.900Z,7.22
2022-11-09T00:52:27.938Z,6.81
2022-11-09T01:02:32.000Z,6.40
2022-11-09T01:12:35.954Z,6.13
2022-11-09T01:22:39.733Z,5.85
2022-11-09T01:32:43.720Z,5.56
2022-11-09T01:42:47.388Z,5.20
2022-11-09T01:52:52.719Z,4.84
2022-11-09T02:03:01.073Z,4.57
2022-11-09T02:13:06.560Z,4.35
2022-11-09T02:23:14.027Z,4.14
2022-11-09T02:33:18.715Z,4.03
2022-11-09T02:43:23.692Z,3.96
2022-11-09T02:53:27.587Z,3.83
2022-11-09T03:03:31.737Z,3.60
2022-11-09T03:13:35.618Z,3.49
2022-11-09T03:23:40.188Z,3.69
2022-11-09T03:33:44.378Z,3.84
2022-11-09T03:43:48.349Z,3.75
2022-11-09T03:53:52.638Z,3.48
2022-11-09T04:03:56.696Z,3.29
2022-11-09T04:14:00.678Z,3.34
2022-11-09T04:24:05.054Z,3.26
2022-11-09T04:34:08.921Z,3.25
2022-11-09T04:44:12.998Z,3.16
2022-11-09T04:54:16.669Z,3.13
2022-11-09T05:04:20.600Z,3.00
2022-11-09T05:14:24.599Z,3.33
2022-11-09T05:24:28.440Z,3.52
2022-11-09T05:34:33.379Z,3.59
2022-11-09T05:44:37.147Z,3.68
2022-11-09T05:54:41.309Z,3.81
2022-11-09T06:04:45.396Z,4.10
2022-11-09T06:14:49.269Z,4.87
2022-11-09T06:24:53.284Z,5.74
2022-11-09T06:34:57.000Z,6.49
2022-11-09T06:45:01.286Z,6.90
2022-11-09T06:55:06.431Z,7.19
2022-11-09T07:05:11.561Z,7.32
2022-11-09T07:15:16.671Z,7.37
2022-11-09T07:25:20.481Z,7.57
2022-11-09T07:35:24.643Z,7.92
2022-11-09T07:45:30.142Z,8.36
2022-11-09T07:55:35.636Z,8.74
2022-11-09T08:05:40.674Z,9.04
2022-11-09T08:15:44.910Z,9.35
2022-11-09T08:25:51.914Z,9.58
2022-11-09T08:35:57.255Z,9.67
2022-11-09T08:46:01.848Z,9.85
2022-11-09T08:56:09.389Z,10.21
2022-11-09T09:06:13.271Z,10.56
2022-11-09T09:16:17.537Z,10.95
2022-11-09T09:26:21.510Z,11.30
2022-11-09T09:36:25.511Z,11.64
2022-11-09T09:46:44.204Z,12.04
2022-11-09T09:56:51.236Z,12.51
2022-11-09T10:07:13.568Z,13.13
2022-11-09T10:17:40.621Z,13.76
2022-11-09T10:27:51.037Z,14.34
2022-11-09T10:37:55.423Z,14.69
2022-11-09T10:47:59.606Z,14.91
2022-11-09T10:58:45.636Z,15.11
2022-11-09T11:09:08.127Z,15.18
2022-11-09T11:19:37.616Z,15.35
2022-11-09T11:30:16.448Z,15.47
2022-11-09T11:40:55.726Z,15.53
2022-11-09T11:52:19.108Z,15.62
2022-11-09T12:03:16.509Z,15.57
2022-11-09T12:13:49.520Z,15.52
2022-11-09T12:24:37.411Z,15.42
2022-11-09T12:35:25.279Z,15.26
2022-11-09T12:45:48.946Z,15.12
2022-11-09T12:56:26.136Z,15.04
2022-11-09T13:07:08.431Z,14.83
2022-11-09T13:17:31.540Z,14.62
2022-11-09T13:27:53.877Z,14.45
2022-11-09T13:38:16.836Z,14.25
2022-11-09T13:48:45.740Z,14.03
2022-11-09T13:59:28.648Z,13.81
2022-11-09T14:10:14.315Z,13.50
2022-11-09T14:20:58.112Z,13.30
2022-11-09T14:31:29.932Z,13.09
2022-11-09T14:41:52.821Z,12.73
2022-11-09T14:52:29.059Z,12.32
2022-11-09T15:02:51.412Z,11.87
2022-11-09T15:13:14.617Z,11.38
2022-11-09T15:23:40.975Z,10.81
2022-11-09T15:34:22.943Z,10.33
2022-11-09T15:44:46.110Z,9.94
2022-11-09T15:55:13.230Z,9.45
2022-11-09T16:05:36.047Z,9.02
2022-11-09T16:16:07.891Z,8.76
2022-11-09T16:26:33.051Z,8.32
2022-11-09T16:36:57.132Z,7.88
2022-11-09T16:47:22.054Z,7.62
2022-11-09T16:57:47.227Z,7.28
2022-11-09T17:08:11.843Z,6.92
2022-11-09T17:18:35.239Z,6.63
2022-11-09T17:28:57.898Z,6.42
2022-11-09T17:39:21.939Z,6.17
2022-11-09T17:49:46.258Z,5.88
2022-11-09T18:00:12.038Z,5.49
2022-11-09T18:10:40.120Z,5.29
2022-11-09T18:21:10.860Z,5.08
2022-11-09T18:31:35.181Z,4.96
2022-11-09T18:42:01.269Z,4.75
2022-11-09T18:52:25.282Z,4.50
2022-11-09T19:02:48.512Z,4.30
2022-11-09T19:13:12.540Z,4.15
2022-11-09T19:23:35.736Z,4.03
2022-11-09T19:34:00.676Z,4.02
2022-11-09T19:44:24.826Z,3.99
2022-11-09T19:54:48.836Z,3.95
2022-11-09T20:05:12.060Z,3.99
2022-11-09T20:15:35.791Z,3.94
2022-11-09T20:26:13.125Z,3.83
2022-11-09T20:36:39.889Z,3.72
2022-11-09T20:47:07.131Z,3.67
2022-11-09T20:57:30.863Z,3.58
2022-11-09T21:07:54.766Z,3.62
2022-11-09T21:18:17.856Z,3.63
2022-11-09T21:29:16.080Z,3.59
2022-11-09T21:39:40.742Z,3.53
2022-11-09T21:50:07.024Z,3.49
2022-11-09T22:00:33.618Z,3.45
2022-11-09T22:11:11.629Z,3.31
2022-11-09T22:21:34.134Z,3.08
2022-11-09T22:31:56.655Z,2.96
2022-11-09T22:42:20.050Z,2.79
2022-11-09T22:52:42.147Z,2.59
2022-11-09T23:03:05.034Z,2.53
2022-11-09T23:13:27.581Z,2.38
2022-11-09T23:23:51.101Z,2.31
2022-11-09T23:34:13.323Z,2.35
2022-11-09T23:44:36.539Z,2.34
2022-11-09T23:54:59.489Z,2.28
